Time;durP1;ratioP1;P1;durP2;ratioP2;P2;SDS_P1;SDS_P2;PMS_P1;PMS_P2;Temp;Humidity;BMP_temperature;BMP_pressure;BME280_temperature;BME280_humidity;BME280_pressure;Samples;Min_cycle;Max_cycle;Signal;HPM_P1;HPM_P2
2022/09/28 00:01:15;;;;;;;1.88;1.27;;;7.70;99.90;;;;;;4922637;28;20070;-69
2022/09/28 00:03:42;;;;;;;1.67;1.05;;;7.70;99.90;;;;;;4925866;28;20042;-71
2022/09/28 00:06:11;;;;;;;3.85;1.20;;;7.70;99.90;;;;;;4928015;28;20789;-70
2022/09/28 00:08:39;;;;;;;2.08;0.80;;;7.70;99.90;;;;;;4924632;28;20035;-71
2022/09/28 00:11:11;;;;;;;4.20;0.77;;;7.70;99.90;;;;;;4926278;28;20042;-71
2022/09/28 00:13:39;;;;;;;3.10;0.88;;;7.70;99.90;;;;;;4926320;28;20038;-71
2022/09/28 00:16:10;;;;;;;2.42;1.13;;;7.60;99.90;;;;;;4905652;28;20200;-71
2022/09/28 00:18:37;;;;;;;4.70;0.88;;;7.60;99.90;;;;;;4926906;28;20579;-70
2022/09/28 00:21:08;;;;;;;3.03;1.02;;;7.60;99.90;;;;;;4924146;28;20110;-70
2022/09/28 00:26:23;;;;;;;;;;;7.60;99.90;;;;;;4926195;28;20076;-71
2022/09/28 00:28:52;;;;;;;1.90;0.82;;;7.50;99.90;;;;;;4924907;28;19937;-70
2022/09/28 00:31:19;;;;;;;2.67;0.93;;;7.50;99.90;;;;;;4924970;28;20043;-70
2022/09/28 00:33:55;;;;;;;2.53;0.80;;;7.50;99.90;;;;;;4923604;28;20297;-70
2022/09/28 00:36:23;;;;;;;4.15;1.35;;;7.50;99.90;;;;;;4940356;28;20849;-70
2022/09/28 00:38:51;;;;;;;4.20;1.52;;;7.50;99.90;;;;;;4919571;28;20311;-70
2022/09/28 00:41:18;;;;;;;1.58;0.90;;;7.50;99.90;;;;;;4927156;28;20038;-70
2022/09/28 00:43:45;;;;;;;;;;;7.50;99.90;;;;;;4928394;28;20045;-70
2022/09/28 00:46:31;;;;;;;3.83;1.03;;;7.40;99.90;;;;;;4929338;28;19926;-70
2022/09/28 00:49:06;;;;;;;1.55;0.68;;;7.40;99.90;;;;;;4922341;28;20385;-70
2022/09/28 00:51:36;;;;;;;1.75;1.05;;;7.40;99.90;;;;;;4942076;28;20153;-70
2022/09/28 00:54:06;;;;;;;5.95;0.90;;;7.40;99.90;;;;;;4928589;28;20050;-70
2022/09/28 00:56:39;;;;;;;4.07;0.90;;;7.40;99.90;;;;;;4918359;28;20852;-70
2022/09/28 00:59:07;;;;;;;3.83;1.00;;;7.40;99.90;;;;;;4932447;28;20154;-70
2022/09/28 01:01:35;;;;;;;2.30;1.35;;;7.30;99.90;;;;;;4928291;28;20495;-70
2022/09/28 01:04:03;;;;;;;7.22;1.30;;;7.30;99.90;;;;;;4928877;28;20046;-69
2022/09/28 01:06:34;;;;;;;2.58;1.00;;;7.30;99.90;;;;;;4929112;28;20450;-70
2022/09/28 01:09:06;;;;;;;2.17;0.70;;;7.20;99.90;;;;;;4928598;28;20153;-70
2022/09/28 01:11:36;;;;;;;3.78;1.20;;;7.20;99.90;;;;;;4928795;28;20235;-70
2022/09/28 01:14:08;;;;;;;4.57;1.00;;;7.10;99.90;;;;;;4917371;28;20048;-70
2022/09/28 01:16:44;;;;;;;1.60;0.85;;;7.10;99.90;;;;;;4924777;28;20054;-70
2022/09/28 01:19:21;;;;;;;2.60;1.20;;;7.00;99.90;;;;;;4930988;28;20641;-69
2022/09/28 01:22:04;;;;;;;;;;;7.00;99.90;;;;;;4929249;28;20291;-70
2022/09/28 01:24:47;;;;;;;5.32;1.55;;;7.00;99.90;;;;;;4927073;28;20516;-70
2022/09/28 01:27:19;;;;;;;2.83;1.10;;;7.00;99.90;;;;;;4917137;28;20046;-70
2022/09/28 01:30:02;;;;;;;2.80;1.05;;;7.00;99.90;;;;;;4915290;28;20878;-70
2022/09/28 01:32:54;;;;;;;1.88;0.95;;;7.00;99.90;;;;;;4928403;28;20046;-70
2022/09/28 01:35:30;;;;;;;3.38;1.00;;;7.00;99.90;;;;;;4942885;28;20785;-70
2022/09/28 01:38:18;;;;;;;4.47;1.48;;;7.00;99.90;;;;;;4927815;28;20043;-70
2022/09/28 01:40:46;;;;;;;3.60;1.05;;;7.00;99.90;;;;;;4916671;28;20918;-70
2022/09/28 01:43:21;;;;;;;1.63;1.13;;;7.00;99.90;;;;;;4927442;28;20621;-69
2022/09/28 01:45:57;;;;;;;2.90;1.23;;;7.00;99.90;;;;;;4927207;28;20035;-70
2022/09/28 01:48:30;;;;;;;;;;;7.00;99.90;;;;;;4919803;28;20043;-70
2022/09/28 01:51:01;;;;;;;1.83;0.90;;;7.10;99.90;;;;;;4900440;28;19934;-69
2022/09/28 01:53:35;;;;;;;2.67;0.85;;;7.10;99.90;;;;;;4929960;28;20116;-71
2022/09/28 01:56:11;;;;;;;1.95;0.70;;;7.10;99.90;;;;;;4926361;28;20828;-70
2022/09/28 01:58:41;;;;;;;1.75;0.90;;;7.10;99.90;;;;;;4925998;28;20051;-70
2022/09/28 02:01:22;;;;;;;0.63;0.63;;;7.20;99.90;;;;;;4926433;28;20057;-70
2022/09/28 02:03:55;;;;;;;1.65;0.70;;;7.20;99.90;;;;;;4926687;28;20299;-70
2022/09/28 02:06:32;;;;;;;3.78;1.23;;;7.20;99.90;;;;;;4942365;28;20050;-70
2022/09/28 02:09:06;;;;;;;7.05;1.02;;;7.20;99.90;;;;;;4926981;28;20144;-70
2022/09/28 02:11:46;;;;;;;3.95;1.15;;;7.20;99.90;;;;;;4941832;28;20046;-70
2022/09/28 02:14:16;;;;;;;1.70;0.80;;;7.20;99.90;;;;;;4924884;28;20038;-70
2022/09/28 02:16:48;;;;;;;2.33;0.90;;;7.20;99.90;;;;;;4923662;28;20967;-70
2022/09/28 02:19:26;;;;;;;0.70;0.70;;;7.20;99.90;;;;;;4927278;28;20045;-71
2022/09/28 02:22:00;;;;;;;6.13;0.95;;;7.20;99.90;;;;;;4924806;28;20053;-70
2022/09/28 02:24:36;;;;;;;1.55;0.80;;;7.20;99.90;;;;;;4926214;28;20462;-70
2022/09/28 02:27:34;;;;;;;1.10;0.80;;;7.20;99.90;;;;;;4913366;28;20055;-69
2022/09/28 02:30:03;;;;;;;4.15;1.23;;;7.20;99.90;;;;;;4918270;28;20034;-71
2022/09/28 02:32:33;;;;;;;4.30;1.13;;;7.20;99.90;;;;;;4919510;28;20042;-69
2022/09/28 02:35:01;;;;;;;3.35;0.90;;;7.20;99.90;;;;;;4925216;28;20542;-71
2022/09/28 02:37:28;;;;;;;2.47;0.98;;;7.20;99.90;;;;;;4935182;28;20034;-70
2022/09/28 02:39:55;;;;;;;1.20;0.70;;;7.30;99.90;;;;;;4929668;28;20046;-70
2022/09/28 02:42:59;;;;;;;1.05;0.80;;;7.20;99.90;;;;;;4925835;28;20145;-70
2022/09/28 02:45:45;;;;;;;0.60;0.60;;;7.30;99.90;;;;;;4925140;28;20042;-70
2022/09/28 02:48:16;;;;;;;2.70;1.17;;;7.20;99.90;;;;;;4916207;28;20050;-70
2022/09/28 02:51:02;;;;;;;1.50;0.73;;;7.30;99.90;;;;;;4924638;28;20057;-70
2022/09/28 02:53:47;;;;;;;4.38;0.98;;;7.30;99.90;;;;;;4926913;28;20618;-70
2022/09/28 02:56:50;;;;;;;0.77;0.70;;;7.30;99.90;;;;;;4942195;28;20046;-70
2022/09/28 02:59:35;;;;;;;1.85;0.75;;;7.30;99.90;;;;;;4917555;28;20066;-70
2022/09/28 03:02:23;;;;;;;3.88;0.80;;;7.30;99.90;;;;;;4925068;28;20046;-70
2022/09/28 03:05:15;;;;;;;1.25;0.90;;;7.30;99.90;;;;;;4940779;28;20062;-70
2022/09/28 03:07:59;;;;;;;3.13;0.75;;;7.30;99.90;;;;;;4926468;28;20876;-71
2022/09/28 03:10:38;;;;;;;3.65;0.90;;;7.30;99.90;;;;;;4924195;28;20698;-71
2022/09/28 03:13:07;;;;;;;0.70;0.70;;;7.30;99.90;;;;;;4922258;28;20046;-72
2022/09/28 03:15:35;;;;;;;4.13;1.50;;;7.30;99.90;;;;;;4931131;28;20050;-70
2022/09/28 03:18:02;;;;;;;3.50;0.90;;;7.30;99.90;;;;;;4926369;28;20140;-71
2022/09/28 03:20:31;;;;;;;3.38;0.93;;;7.20;99.90;;;;;;4933883;28;20270;-71
2022/09/28 03:22:59;;;;;;;1.92;0.70;;;7.20;99.90;;;;;;4952257;28;20046;-70
2022/09/28 03:25:46;;;;;;;2.70;1.20;;;7.20;99.90;;;;;;4915890;28;20645;-70
2022/09/28 03:28:13;;;;;;;1.48;0.95;;;7.20;99.90;;;;;;4920440;28;20241;-70
2022/09/28 03:30:42;;;;;;;4.03;0.85;;;7.20;99.90;;;;;;4923824;28;20146;-70
2022/09/28 03:33:10;;;;;;;3.83;0.90;;;7.20;99.90;;;;;;4928732;28;20110;-71
2022/09/28 03:35:37;;;;;;;8.55;1.55;;;7.20;99.90;;;;;;4899271;28;20043;-71
2022/09/28 03:38:04;;;;;;;8.73;1.05;;;7.20;99.90;;;;;;4927718;28;20042;-70
2022/09/28 03:40:36;;;;;;;4.72;1.15;;;7.20;99.90;;;;;;4920357;28;20086;-71
2022/09/28 03:43:03;;;;;;;1.65;0.90;;;7.20;99.90;;;;;;4925207;28;20196;-69
2022/09/28 03:45:30;;;;;;;;;;;7.20;99.90;;;;;;4920840;28;20062;-70
2022/09/28 03:47:57;;;;;;;3.70;0.90;;;7.20;99.90;;;;;;4927382;28;20570;-70
2022/09/28 03:50:24;;;;;;;2.42;1.13;;;7.20;99.90;;;;;;4920068;28;20477;-69
2022/09/28 03:52:51;;;;;;;3.85;1.08;;;7.20;99.90;;;;;;4925026;28;20050;-69
2022/09/28 03:55:18;;;;;;;1.35;1.10;;;7.10;99.90;;;;;;4917257;28;20043;-69
2022/09/28 03:57:53;;;;;;;1.17;1.08;;;7.10;99.90;;;;;;4926917;28;20533;-70
2022/09/28 04:00:20;;;;;;;1.58;1.00;;;7.10;99.90;;;;;;4929187;28;20201;-70
2022/09/28 04:02:47;;;;;;;2.70;0.90;;;7.10;99.90;;;;;;4942090;28;20047;-71
2022/09/28 04:05:14;;;;;;;2.72;1.02;;;7.10;99.90;;;;;;4918959;28;20607;-70
2022/09/28 04:07:41;;;;;;;3.95;1.10;;;7.10;99.90;;;;;;4926481;28;20043;-70
2022/09/28 04:10:08;;;;;;;3.70;0.90;;;7.10;99.90;;;;;;4925698;28;20251;-70
2022/09/28 04:12:35;;;;;;;1.90;0.77;;;7.10;99.90;;;;;;4926418;28;20563;-70
2022/09/28 04:15:04;;;;;;;1.17;0.82;;;7.10;99.90;;;;;;4926796;28;20220;-70
2022/09/28 04:17:31;;;;;;;0.70;0.70;;;7.10;99.90;;;;;;4925996;28;20035;-70
2022/09/28 04:20:08;;;;;;;3.60;0.73;;;7.20;99.90;;;;;;4931559;28;20859;-70
2022/09/28 04:22:38;;;;;;;0.73;0.73;;;7.20;99.90;;;;;;4918955;28;20136;-69
2022/09/28 04:25:06;;;;;;;2.85;0.65;;;7.20;99.90;;;;;;4929779;28;20050;-71
2022/09/28 04:30:19;;;;;;;1.65;0.77;;;7.20;99.90;;;;;;4914616;28;20043;-70
2022/09/28 04:32:46;;;;;;;2.58;0.57;;;7.20;99.90;;;;;;4923676;28;20101;-69
2022/09/28 04:35:14;;;;;;;4.85;1.33;;;7.20;99.90;;;;;;4943690;28;20270;-69
2022/09/28 04:37:41;;;;;;;1.95;0.80;;;7.20;99.90;;;;;;4924993;28;20907;-70
2022/09/28 04:40:08;;;;;;;;;;;7.20;99.90;;;;;;4944981;28;20152;-70
2022/09/28 04:42:36;;;;;;;4.00;1.20;;;7.20;99.90;;;;;;4905348;28;20723;-71
2022/09/28 04:45:04;;;;;;;1.27;1.15;;;7.20;99.90;;;;;;4929857;28;20308;-70
2022/09/28 04:47:34;;;;;;;3.05;1.50;;;7.20;99.90;;;;;;4927728;28;20050;-70
2022/09/28 04:50:19;;;;;;;1.77;0.82;;;7.20;99.90;;;;;;4945627;28;20042;-69
2022/09/28 04:53:04;;;;;;;1.88;1.25;;;7.20;99.90;;;;;;4940162;28;20378;-69
2022/09/28 04:55:31;;;;;;;;;;;7.20;99.90;;;;;;4932581;28;20054;-69
2022/09/28 04:58:02;;;;;;;3.03;1.13;;;7.20;99.90;;;;;;4916306;28;20343;-70
2022/09/28 05:00:33;;;;;;;2.30;0.90;;;7.20;99.90;;;;;;4929485;28;20863;-69
2022/09/28 05:03:30;;;;;;;3.40;0.90;;;7.20;99.90;;;;;;4934813;28;20093;-71
2022/09/28 05:06:14;;;;;;;5.28;2.20;;;7.20;99.90;;;;;;4932628;28;20050;-71
2022/09/28 05:08:46;;;;;;;2.33;0.93;;;7.20;99.90;;;;;;4926372;28;20947;-70
2022/09/28 05:11:15;;;;;;;1.00;1.00;;;7.20;99.90;;;;;;4905099;28;20346;-70
2022/09/28 05:13:43;;;;;;;;;;;7.30;99.90;;;;;;4944037;28;20054;-71
2022/09/28 05:16:14;;;;;;;2.95;0.70;;;7.20;99.90;;;;;;4950453;28;20289;-71
2022/09/28 05:19:09;;;;;;;0.77;0.77;;;7.20;99.90;;;;;;4906192;28;20600;-71
2022/09/28 05:21:36;;;;;;;0.80;0.80;;;7.20;99.90;;;;;;4933058;28;20215;-71
2022/09/28 05:24:06;;;;;;;;;;;7.20;99.90;;;;;;4922714;28;20043;-71
2022/09/28 05:26:35;;;;;;;2.65;0.60;;;7.30;99.90;;;;;;4946098;28;20095;-71
2022/09/28 05:29:03;;;;;;;1.20;0.90;;;7.30;99.90;;;;;;4924896;28;20244;-71
2022/09/28 05:31:49;;;;;;;4.10;1.45;;;7.30;99.90;;;;;;4927906;28;20154;-53
2022/09/28 05:34:42;;;;;;;2.03;0.88;;;7.30;99.90;;;;;;4911387;28;20173;-53
2022/09/28 05:37:15;;;;;;;3.80;0.93;;;7.30;99.90;;;;;;4928841;28;20057;-63
2022/09/28 05:39:44;;;;;;;1.20;0.82;;;7.30;99.90;;;;;;4931697;28;20052;-54
2022/09/28 05:42:11;;;;;;;0.82;0.75;;;7.40;99.90;;;;;;4929040;28;20043;-54
2022/09/28 05:44:38;;;;;;;0.93;0.90;;;7.40;99.90;;;;;;4926182;28;20070;-53
2022/09/28 05:47:05;;;;;;;1.88;1.00;;;7.40;99.90;;;;;;4929425;28;20057;-53
2022/09/28 05:49:32;;;;;;;1.73;1.08;;;7.40;99.90;;;;;;4903545;28;20081;-54
2022/09/28 05:52:00;;;;;;;1.45;1.00;;;7.40;99.90;;;;;;4930190;28;20038;-53
2022/09/28 05:54:27;;;;;;;6.53;1.40;;;7.40;99.90;;;;;;4930961;28;20525;-53
2022/09/28 05:56:54;;;;;;;4.20;1.60;;;7.40;99.90;;;;;;4925569;28;20038;-58
2022/09/28 05:59:21;;;;;;;2.13;1.38;;;7.50;99.90;;;;;;4930453;28;20045;-53
2022/09/28 06:01:48;;;;;;;2.92;1.60;;;7.50;99.90;;;;;;4920462;28;20545;-53
2022/09/28 06:04:16;;;;;;;3.38;1.40;;;7.50;99.90;;;;;;4926370;28;20350;-53
2022/09/28 06:06:44;;;;;;;1.65;1.42;;;7.50;99.90;;;;;;4901379;28;20233;-54
2022/09/28 06:09:12;;;;;;;3.00;1.95;;;7.50;99.90;;;;;;4928329;28;20730;-53
2022/09/28 06:12:01;;;;;;;3.50;2.10;;;7.60;99.90;;;;;;4921634;28;20657;-52
2022/09/28 06:14:37;;;;;;;5.13;2.88;;;7.60;99.90;;;;;;4922325;28;20092;-54
2022/09/28 06:17:04;;;;;;;2.55;1.80;;;7.60;99.90;;;;;;4928719;28;20050;-52
2022/09/28 06:19:31;;;;;;;5.43;1.55;;;7.60;99.90;;;;;;4921360;28;20046;-52
2022/09/28 06:22:07;;;;;;;3.08;1.50;;;7.60;99.90;;;;;;4928228;28;20136;-53
2022/09/28 06:24:42;;;;;;;3.45;1.80;;;7.70;99.90;;;;;;4928182;28;20830;-51
2022/09/28 06:27:09;;;;;;;3.17;1.73;;;7.70;99.90;;;;;;4929040;28;20034;-60
2022/09/28 06:29:36;;;;;;;4.82;1.90;;;7.70;99.90;;;;;;4927434;28;20301;-55
2022/09/28 06:32:03;;;;;;;4.68;2.40;;;7.70;99.90;;;;;;4927557;28;20112;-56
2022/09/28 06:34:30;;;;;;;;;;;7.70;99.90;;;;;;4921847;28;20556;-59
2022/09/28 06:36:57;;;;;;;2.03;1.50;;;7.70;99.90;;;;;;4920302;28;19936;-56
2022/09/28 06:39:24;;;;;;;1.38;1.27;;;7.80;99.90;;;;;;4929788;28;20042;-53
2022/09/28 06:41:51;;;;;;;;;;;7.80;99.90;;;;;;4928824;28;20589;-61
2022/09/28 06:44:20;;;;;;;1.52;0.90;;;7.80;99.90;;;;;;4924673;28;20412;-55
2022/09/28 06:47:07;;;;;;;5.13;0.80;;;7.80;99.90;;;;;;4926439;28;20393;-57
2022/09/28 06:49:54;;;;;;;0.80;0.70;;;7.90;99.90;;;;;;4924008;28;20742;-58
2022/09/28 06:52:39;;;;;;;0.68;0.63;;;7.90;99.90;;;;;;4929711;28;20477;-57
2022/09/28 06:55:49;;;;;;;0.55;0.50;;;7.90;99.90;;;;;;4914626;28;20148;-55
2022/09/28 06:58:18;;;;;;;1.55;0.60;;;8.00;99.90;;;;;;4916264;28;20160;-54
2022/09/28 07:00:48;;;;;;;0.40;0.40;;;8.00;99.90;;;;;;4925882;28;20574;-53
2022/09/28 07:03:20;;;;;;;0.57;0.45;;;8.10;99.90;;;;;;4931000;28;20057;-53
2022/09/28 07:06:10;;;;;;;0.65;0.45;;;8.10;99.90;;;;;;4925701;28;20080;-56
2022/09/28 07:08:52;;;;;;;0.50;0.50;;;8.20;99.90;;;;;;4928573;28;20065;-56
2022/09/28 07:11:59;;;;;;;0.50;0.50;;;8.20;99.90;;;;;;4924567;28;20961;-55
2022/09/28 07:14:40;;;;;;;1.90;0.60;;;8.30;99.90;;;;;;4938565;28;20055;-53
2022/09/28 07:17:15;;;;;;;0.80;0.40;;;8.30;99.90;;;;;;4916143;28;20050;-54
2022/09/28 07:19:43;;;;;;;0.75;0.45;;;8.40;99.90;;;;;;4923116;28;20525;-55
2022/09/28 07:22:13;;;;;;;0.85;0.35;;;8.40;99.90;;;;;;4926703;28;20124;-54
2022/09/28 07:24:46;;;;;;;4.50;0.60;;;8.40;99.90;;;;;;4922001;28;20039;-53
2022/09/28 07:27:46;;;;;;;3.08;1.05;;;8.40;99.90;;;;;;4897925;28;20944;-54
2022/09/28 07:30:31;;;;;;;0.60;0.60;;;8.50;99.90;;;;;;4924143;28;20209;-54
2022/09/28 07:33:19;;;;;;;0.50;0.50;;;8.50;99.90;;;;;;4919763;28;20855;-53
2022/09/28 07:35:54;;;;;;;0.43;0.43;;;8.50;99.90;;;;;;4926358;28;20050;-54
2022/09/28 07:38:28;;;;;;;0.50;0.50;;;8.50;99.90;;;;;;4914914;28;20054;-54
2022/09/28 07:41:11;;;;;;;2.30;0.70;;;8.60;99.90;;;;;;4901547;28;20050;-53
2022/09/28 07:43:44;;;;;;;3.22;0.68;;;8.60;99.90;;;;;;4938775;28;20046;-55
2022/09/28 07:46:11;;;;;;;2.67;1.35;;;8.60;99.90;;;;;;4921018;28;20355;-55
2022/09/28 07:48:44;;;;;;;1.15;0.63;;;8.70;99.90;;;;;;4940055;28;20042;-53
2022/09/28 07:51:31;;;;;;;1.30;0.88;;;8.70;99.90;;;;;;4928903;28;20633;-52
2022/09/28 07:54:22;;;;;;;3.63;1.38;;;8.70;99.90;;;;;;4929394;28;20042;-60
2022/09/28 07:57:08;;;;;;;2.60;1.27;;;8.70;99.90;;;;;;4928536;28;20255;-55
2022/09/28 07:59:44;;;;;;;4.53;1.20;;;8.70;99.90;;;;;;4927763;28;20124;-54
2022/09/28 08:02:47;;;;;;;3.53;1.40;;;8.80;99.90;;;;;;4930418;28;20201;-53
2022/09/28 08:05:21;;;;;;;1.52;1.05;;;8.80;99.90;;;;;;4928071;28;20432;-54
2022/09/28 08:07:48;;;;;;;1.10;0.70;;;8.80;99.90;;;;;;4925832;28;20283;-54
2022/09/28 08:10:16;;;;;;;3.33;0.98;;;8.90;99.90;;;;;;4924819;28;20311;-54
2022/09/28 08:13:02;;;;;;;1.33;1.00;;;8.90;99.90;;;;;;4887947;28;1215667;-55
2022/09/28 08:15:35;;;;;;;1.52;1.02;;;8.90;99.90;;;;;;4930271;28;20784;-54
2022/09/28 08:18:25;;;;;;;2.15;0.80;;;9.00;99.90;;;;;;4926058;28;21010;-54
2022/09/28 08:23:38;;;;;;;1.77;0.82;;;9.00;99.90;;;;;;4928860;28;19922;-54
2022/09/28 08:26:06;;;;;;;2.10;1.00;;;9.10;99.90;;;;;;4922539;28;20370;-63
2022/09/28 08:28:38;;;;;;;2.67;0.85;;;9.10;99.90;;;;;;4921408;28;20758;-53
2022/09/28 08:31:25;;;;;;;3.38;1.00;;;9.10;99.90;;;;;;4928128;28;20057;-55
2022/09/28 08:34:18;;;;;;;2.60;0.70;;;9.20;99.90;;;;;;4923321;28;20936;-53
2022/09/28 08:37:09;;;;;;;3.60;0.75;;;9.20;99.90;;;;;;4927298;28;20215;-53
2022/09/28 08:40:02;;;;;;;0.60;0.40;;;9.30;99.90;;;;;;4900413;28;20372;-55
2022/09/28 08:42:50;;;;;;;0.88;0.52;;;9.30;99.90;;;;;;4922835;28;20089;-52
2022/09/28 08:45:34;;;;;;;0.60;0.50;;;9.30;99.90;;;;;;4925560;28;20579;-53
2022/09/28 08:48:46;;;;;;;0.82;0.50;;;9.30;99.90;;;;;;4927192;28;20626;-53
2022/09/28 08:52:04;;;;;;;0.75;0.50;;;9.30;99.90;;;;;;4930567;28;20393;-53
2022/09/28 08:54:56;;;;;;;1.30;0.70;;;9.30;99.90;;;;;;4926038;28;20251;-53
2022/09/28 08:57:49;;;;;;;2.20;0.65;;;9.40;99.90;;;;;;4922895;28;20223;-52
2022/09/28 09:00:34;;;;;;;0.47;0.40;;;9.40;99.90;;;;;;4917248;28;20630;-52
2022/09/28 09:03:27;;;;;;;1.55;0.50;;;9.40;99.90;;;;;;4949709;28;20053;-53
2022/09/28 09:06:47;;;;;;;0.45;0.40;;;9.40;99.90;;;;;;4923884;28;20047;-54
2022/09/28 09:10:18;;;;;;;1.73;0.55;;;9.40;99.90;;;;;;4927862;28;20046;-53
2022/09/28 09:13:18;;;;;;;1.08;0.43;;;9.40;99.90;;;;;;4927792;28;20050;-53
2022/09/28 09:16:14;;;;;;;0.57;0.40;;;9.40;99.90;;;;;;4923889;28;20050;-53
2022/09/28 09:19:27;;;;;;;0.95;0.50;;;9.40;99.90;;;;;;4921376;28;20491;-53
2022/09/28 09:22:29;;;;;;;3.20;0.55;;;9.40;99.90;;;;;;4940033;28;20046;-52
2022/09/28 09:25:19;;;;;;;2.55;0.80;;;9.40;99.90;;;;;;4930459;28;20046;-55
2022/09/28 09:28:03;;;;;;;4.88;0.70;;;9.40;99.90;;;;;;4905762;28;20324;-55
2022/09/28 09:30:51;;;;;;;2.65;0.80;;;9.40;99.90;;;;;;4923875;28;20383;-55
2022/09/28 09:33:46;;;;;;;1.17;0.98;;;9.40;99.90;;;;;;4914720;28;20240;-53
2022/09/28 09:36:39;;;;;;;1.92;1.02;;;9.50;99.90;;;;;;4922261;28;20960;-55
2022/09/28 09:40:25;;;;;;;1.20;1.08;;;9.50;99.90;;;;;;4924588;28;20901;-53
2022/09/28 09:44:02;;;;;;;0.98;0.80;;;9.50;99.90;;;;;;4928644;28;20680;-55
2022/09/28 09:47:10;;;;;;;3.15;1.23;;;9.60;99.90;;;;;;4866335;29;20589;-55
2022/09/28 09:50:00;;;;;;;2.00;1.50;;;9.60;99.90;;;;;;4868195;29;20591;-55
2022/09/28 09:53:09;;;;;;;1.60;1.13;;;9.60;99.90;;;;;;4924532;28;20050;-56
2022/09/28 09:55:49;;;;;;;1.67;0.75;;;9.60;99.90;;;;;;4916907;28;20389;-53
2022/09/28 09:58:36;;;;;;;0.82;0.73;;;9.70;99.90;;;;;;4926786;28;20049;-53
2022/09/28 10:01:38;;;;;;;0.80;0.80;;;9.70;99.90;;;;;;4919134;28;20053;-54
2022/09/28 10:04:27;;;;;;;1.33;0.63;;;9.70;99.90;;;;;;4925861;28;20593;-51
2022/09/28 10:07:08;;;;;;;1.58;0.93;;;9.80;99.90;;;;;;4945345;28;20355;-52
2022/09/28 10:09:44;;;;;;;1.75;0.70;;;9.80;99.90;;;;;;4915603;28;20135;-52
2022/09/28 10:12:38;;;;;;;0.88;0.70;;;9.70;99.90;;;;;;4902768;28;20070;-53
2022/09/28 10:15:07;;;;;;;0.85;0.63;;;9.70;99.90;;;;;;4943158;28;20061;-52
2022/09/28 10:17:46;;;;;;;0.63;0.63;;;9.70;99.90;;;;;;4915718;28;20296;-53
2022/09/28 10:20:41;;;;;;;1.17;0.70;;;9.80;99.90;;;;;;4926177;28;20128;-53
2022/09/28 10:23:32;;;;;;;1.48;0.82;;;9.80;99.90;;;;;;4917246;28;20065;-53
2022/09/28 10:26:04;;;;;;;0.73;0.73;;;9.90;99.90;;;;;;4930228;28;20791;-52
2022/09/28 10:28:44;;;;;;;2.05;1.05;;;9.90;99.90;;;;;;4926822;28;20282;-53
2022/09/28 10:31:42;;;;;;;3.85;0.98;;;9.90;99.90;;;;;;4928343;28;20046;-52
2022/09/28 10:34:23;;;;;;;2.08;1.20;;;9.90;99.90;;;;;;4918793;28;20197;-53
2022/09/28 10:37:02;;;;;;;3.38;0.98;;;9.90;99.90;;;;;;4929439;28;20378;-53
2022/09/28 10:39:52;;;;;;;1.65;1.08;;;10.00;99.90;;;;;;4940313;28;20042;-52
2022/09/28 10:42:24;;;;;;;1.27;0.90;;;10.00;99.90;;;;;;4928677;28;20362;-53
2022/09/28 10:45:15;;;;;;;0.80;0.80;;;10.00;99.90;;;;;;4923687;28;20061;-52
2022/09/28 10:47:44;;;;;;;0.77;0.77;;;10.00;99.90;;;;;;4927830;28;20046;-52
2022/09/28 10:50:25;;;;;;;1.33;0.95;;;10.00;99.90;;;;;;4923643;28;20068;-52
2022/09/28 10:53:19;;;;;;;1.15;0.95;;;10.00;99.90;;;;;;4939769;28;20157;-53
2022/09/28 10:56:21;;;;;;;2.17;0.80;;;10.00;99.90;;;;;;4917638;28;20627;-53
2022/09/28 10:58:54;;;;;;;1.05;0.80;;;9.90;99.90;;;;;;4942398;28;21080;-52
2022/09/28 11:01:32;;;;;;;0.80;0.70;;;9.90;99.90;;;;;;4925978;28;20399;-52
2022/09/28 11:04:02;;;;;;;1.77;0.95;;;9.90;99.90;;;;;;4924834;28;20342;-50
2022/09/28 11:06:31;;;;;;;0.68;0.68;;;9.90;99.90;;;;;;4926845;28;20455;-53
2022/09/28 11:09:25;;;;;;;0.80;0.80;;;10.00;99.90;;;;;;4927792;28;20052;-52
2022/09/28 11:12:02;;;;;;;0.75;0.73;;;10.00;99.90;;;;;;4927825;28;20300;-52
2022/09/28 11:14:34;;;;;;;0.75;0.70;;;10.00;99.90;;;;;;4925439;28;20043;-53
2022/09/28 11:17:26;;;;;;;1.52;1.42;;;10.10;99.90;;;;;;4928051;28;20046;-53
2022/09/28 11:22:36;;;;;;;1.38;0.90;;;10.10;99.90;;;;;;5021727;27;21050;-52
2022/09/28 11:25:20;;;;;;;1.75;1.30;;;10.10;99.90;;;;;;5015990;28;20043;-52
2022/09/28 11:27:51;;;;;;;2.05;0.98;;;10.10;99.90;;;;;;5022298;28;20576;-52
2022/09/28 11:30:22;;;;;;;0.77;0.60;;;10.10;99.90;;;;;;5026410;28;20044;-50
2022/09/28 11:33:24;;;;;;;1.05;0.52;;;10.10;99.90;;;;;;5023543;28;20660;-52
2022/09/28 11:36:15;;;;;;;0.50;0.50;;;10.10;99.90;;;;;;5017737;28;20063;-51
2022/09/28 11:39:10;;;;;;;0.75;0.40;;;10.00;99.90;;;;;;5025716;28;20100;-52
2022/09/28 11:42:04;;;;;;;0.55;0.47;;;10.00;99.90;;;;;;5019902;28;20230;-54
2022/09/28 11:44:45;;;;;;;1.38;1.08;;;9.90;99.90;;;;;;5020524;28;20138;-53
2022/09/28 11:47:47;;;;;;;0.45;0.45;;;9.90;99.90;;;;;;5023012;28;20116;-52
2022/09/28 11:50:19;;;;;;;0.40;0.40;;;9.90;99.90;;;;;;5017361;28;20049;-53
2022/09/28 11:53:12;;;;;;;0.40;0.40;;;9.90;99.90;;;;;;5021144;28;20036;-52
2022/09/28 11:55:55;;;;;;;0.73;0.40;;;9.80;99.90;;;;;;5000584;28;20778;-52
2022/09/28 11:58:34;;;;;;;0.50;0.50;;;9.90;99.90;;;;;;5019981;28;20174;-52
2022/09/28 12:01:14;;;;;;;1.35;0.68;;;9.80;99.90;;;;;;5024064;28;20581;-52
2022/09/28 12:04:11;;;;;;;0.43;0.30;;;9.80;99.90;;;;;;5021780;28;20090;-51
2022/09/28 12:06:48;;;;;;;0.65;0.40;;;9.80;99.90;;;;;;5023876;28;20059;-52
2022/09/28 12:09:39;;;;;;;1.38;0.43;;;9.80;99.90;;;;;;5008000;28;20141;-52
2022/09/28 12:12:42;;;;;;;1.48;0.40;;;9.80;99.90;;;;;;5026564;28;20115;-51
2022/09/28 12:15:41;;;;;;;1.45;0.52;;;9.70;99.90;;;;;;5008114;28;20051;-52
2022/09/28 12:18:49;;;;;;;3.17;1.10;;;9.70;99.90;;;;;;5022553;28;20331;-53
2022/09/28 12:21:55;;;;;;;0.45;0.45;;;9.70;99.90;;;;;;5019013;28;20051;-51
2022/09/28 12:24:44;;;;;;;0.60;0.43;;;9.70;99.90;;;;;;5026854;28;20032;-52
2022/09/28 12:27:37;;;;;;;2.85;0.60;;;9.60;99.90;;;;;;5027966;28;20076;-52
2022/09/28 12:30:15;;;;;;;1.63;0.80;;;9.60;99.90;;;;;;5020282;28;20561;-51
2022/09/28 12:32:52;;;;;;;1.33;0.47;;;9.60;99.90;;;;;;5010258;28;20041;-52
2022/09/28 12:35:28;;;;;;;0.53;0.50;;;9.60;99.90;;;;;;5006210;28;20549;-51
2022/09/28 12:38:26;;;;;;;0.82;0.40;;;9.60;99.90;;;;;;5016482;28;20435;-51
2022/09/28 12:41:28;;;;;;;1.35;0.52;;;9.60;99.90;;;;;;5006738;28;20230;-52
2022/09/28 12:44:02;;;;;;;0.50;0.32;;;9.50;99.90;;;;;;4994290;28;20221;-52
2022/09/28 12:46:45;;;;;;;1.13;0.30;;;9.50;99.90;;;;;;5002848;28;20087;-53
2022/09/28 12:49:25;;;;;;;0.65;0.50;;;9.50;99.90;;;;;;4997119;28;20143;-51
2022/09/28 12:52:35;;;;;;;0.68;0.40;;;9.50;99.90;;;;;;4998618;28;20041;-52
2022/09/28 12:55:07;;;;;;;0.82;0.40;;;9.40;99.90;;;;;;5007157;28;20778;-52
2022/09/28 12:57:58;;;;;;;0.80;0.60;;;9.40;99.90;;;;;;5016733;28;20148;-50
2022/09/28 13:00:39;;;;;;;0.40;0.40;;;9.50;99.90;;;;;;5014401;28;20068;-53
2022/09/28 13:03:30;;;;;;;0.20;0.20;;;9.40;99.90;;;;;;5004708;28;20053;-53
2022/09/28 13:06:22;;;;;;;0.63;0.30;;;9.40;99.90;;;;;;4974012;28;20110;-53
2022/09/28 13:09:07;;;;;;;0.40;0.40;;;9.50;99.90;;;;;;5002638;28;20815;-53
2022/09/28 13:11:52;;;;;;;0.77;0.50;;;9.50;99.90;;;;;;5002270;28;20277;-53
2022/09/28 13:14:42;;;;;;;7.93;0.50;;;9.50;99.90;;;;;;5009826;28;20762;-53
2022/09/28 13:17:39;;;;;;;0.40;0.40;;;9.50;99.90;;;;;;5005531;28;20048;-53
2022/09/28 13:20:30;;;;;;;0.82;0.60;;;9.50;99.90;;;;;;5000840;28;20189;-53
2022/09/28 13:23:19;;;;;;;0.68;0.60;;;9.50;99.90;;;;;;5017530;28;20040;-52
2022/09/28 13:26:06;;;;;;;;;;;9.50;99.90;;;;;;5003442;28;20048;-53
2022/09/28 13:28:36;;;;;;;3.40;0.50;;;9.50;99.90;;;;;;5002439;28;19955;-53
2022/09/28 13:31:04;;;;;;;1.35;1.00;;;9.60;99.90;;;;;;5012899;28;20044;-53
2022/09/28 13:33:40;;;;;;;1.40;0.90;;;9.60;99.90;;;;;;5014832;28;20155;-52
2022/09/28 13:36:26;;;;;;;0.88;0.68;;;9.60;99.90;;;;;;4988338;28;20063;-52
2022/09/28 13:38:55;;;;;;;3.25;0.80;;;9.60;99.90;;;;;;5006885;28;20489;-53
2022/09/28 13:41:27;;;;;;;2.95;0.75;;;9.60;99.90;;;;;;4996479;28;20201;-52
2022/09/28 13:44:06;;;;;;;1.80;0.70;;;9.60;99.90;;;;;;4996893;28;20788;-52
2022/09/28 13:47:00;;;;;;;2.03;0.70;;;9.60;99.90;;;;;;4998481;28;20118;-53
2022/09/28 13:49:48;;;;;;;0.50;0.43;;;9.60;99.90;;;;;;5004837;28;20291;-52
2022/09/28 13:52:35;;;;;;;;;;;9.60;99.90;;;;;;5001959;28;20040;-52
2022/09/28 13:55:18;;;;;;;2.00;0.60;;;9.60;99.90;;;;;;4999403;28;19921;-54
2022/09/28 13:57:51;;;;;;;0.60;0.57;;;9.60;99.90;;;;;;4995547;28;20052;-54
2022/09/28 14:00:27;;;;;;;1.20;0.90;;;9.60;99.90;;;;;;4997622;28;20048;-54
2022/09/28 14:03:13;;;;;;;0.50;0.40;;;9.70;99.90;;;;;;5005499;28;20271;-55
2022/09/28 14:06:08;;;;;;;0.52;0.40;;;9.70;99.90;;;;;;5001200;28;20126;-53
2022/09/28 14:09:04;;;;;;;0.50;0.50;;;9.70;99.90;;;;;;4997180;28;20052;-54
2022/09/28 14:11:34;;;;;;;0.35;0.35;;;9.60;99.90;;;;;;5006691;28;20820;-54
2022/09/28 14:14:22;;;;;;;0.50;0.50;;;9.60;99.90;;;;;;5008737;28;20134;-54
2022/09/28 14:16:59;;;;;;;1.02;0.55;;;9.60;99.90;;;;;;4997472;28;20044;-56